createdAt,value
2017-04-06T00:00:34.381Z,0
2017-04-06T00:01:34.432Z,0
2017-04-06T00:02:34.186Z,0
2017-04-06T00:03:34.238Z,0
2017-04-06T00:04:34.588Z,0
2017-04-06T00:05:34.335Z,0
2017-04-06T00:06:34.696Z,0
2017-04-06T00:07:34.741Z,0
2017-04-06T00:08:34.801Z,0
2017-04-06T00:09:34.852Z,0
2017-04-06T00:10:34.899Z,0
2017-04-06T00:11:34.954Z,0
2017-04-06T00:12:35.005Z,0
2017-04-06T00:13:35.059Z,0
2017-04-06T00:14:35.112Z,0
2017-04-06T00:15:35.159Z,0
2017-04-06T00:16:35.213Z,0
2017-04-06T00:17:35.262Z,0
2017-04-06T00:18:35.018Z,0
2017-04-06T00:19:35.364Z,0
2017-04-06T00:20:35.433Z,0
2017-04-06T00:21:35.471Z,0
2017-04-06T00:22:35.534Z,0
2017-04-06T00:23:35.572Z,0
2017-04-06T00:24:35.627Z,0
2017-04-06T00:25:35.685Z,0
2017-04-06T00:26:35.735Z,0
2017-04-06T00:27:35.784Z,0
2017-04-06T00:28:35.836Z,0
2017-04-06T00:29:35.890Z,0
2017-04-06T00:30:35.948Z,0
2017-04-06T00:31:35.990Z,0
2017-04-06T00:32:36.038Z,0
2017-04-06T00:33:36.091Z,0
2017-04-06T00:34:36.145Z,0
2017-04-06T00:35:36.201Z,0
2017-04-06T00:36:35.948Z,0
2017-04-06T00:37:36.301Z,0
2017-04-06T00:38:36.356Z,0
2017-04-06T00:39:36.404Z,0
2017-04-06T00:40:36.458Z,0
2017-04-06T00:41:36.537Z,0
2017-04-06T00:42:36.560Z,0
2017-04-06T00:43:36.613Z,0
2017-04-06T00:44:36.669Z,0
2017-04-06T00:45:36.418Z,0
2017-04-06T00:46:36.770Z,0
2017-04-06T00:47:36.819Z,0
2017-04-06T00:48:36.273Z,0
2017-04-06T00:49:36.924Z,0
2017-04-06T00:50:36.974Z,0
2017-04-06T00:51:36.727Z,0
2017-04-06T00:52:37.078Z,0
2017-04-06T00:53:37.125Z,0
2017-04-06T00:54:37.177Z,0
2017-04-06T00:55:36.937Z,0
2017-04-06T00:56:37.283Z,0
2017-04-06T00:57:37.337Z,0
2017-04-06T00:58:37.383Z,0
2017-04-06T00:59:37.443Z,0
2017-04-06T01:00:37.494Z,0
2017-04-06T01:01:37.242Z,0
2017-04-06T01:02:37.629Z,0
2017-04-06T01:03:37.646Z,0
2017-04-06T01:04:37.698Z,0
2017-04-06T01:05:37.751Z,0
2017-04-06T01:06:37.505Z,0
2017-04-06T01:07:37.894Z,0
2017-04-06T01:08:37.913Z,0
2017-04-06T01:09:37.977Z,0
2017-04-06T01:10:38.009Z,0
2017-04-06T01:11:38.058Z,0
2017-04-06T01:12:38.131Z,0
2017-04-06T01:13:38.165Z,0
2017-04-06T01:14:38.216Z,0
2017-04-06T01:15:38.267Z,0
2017-04-06T01:16:38.320Z,0
2017-04-06T01:17:38.068Z,0
2017-04-06T01:18:38.422Z,0
2017-04-06T01:19:38.482Z,0
2017-04-06T01:20:38.527Z,0
2017-04-06T01:21:38.582Z,0
2017-04-06T01:22:38.632Z,0
2017-04-06T01:23:38.678Z,0
2017-04-06T01:24:38.732Z,0
2017-04-06T01:25:38.789Z,0
2017-04-06T01:26:38.836Z,0
2017-04-06T01:27:38.893Z,0
2017-04-06T01:28:38.939Z,0
2017-04-06T01:29:38.998Z,0
2017-04-06T01:30:39.046Z,0
2017-04-06T01:31:38.794Z,0
2017-04-06T01:32:39.151Z,0
2017-04-06T01:33:39.202Z,0
2017-04-06T01:34:39.251Z,0
2017-04-06T01:35:39.311Z,0
2017-04-06T01:36:39.352Z,0
2017-04-06T01:37:39.405Z,0
2017-04-06T01:38:39.458Z,0
2017-04-06T01:39:39.512Z,0
2017-04-06T01:40:39.566Z,0
2017-04-06T01:41:39.618Z,0
2017-04-06T01:42:39.667Z,0
2017-04-06T01:43:39.719Z,0
2017-04-06T01:44:39.773Z,0
2017-04-06T01:45:39.833Z,0
2017-04-06T01:46:39.572Z,0
2017-04-06T01:47:39.928Z,0
2017-04-06T01:48:39.982Z,0
2017-04-06T01:49:40.030Z,0
2017-04-06T01:50:40.085Z,0
2017-04-06T01:51:40.139Z,0
2017-04-06T01:52:40.189Z,0
2017-04-06T01:53:40.239Z,0
2017-04-06T01:54:40.291Z,0
2017-04-06T01:55:40.345Z,0
2017-04-06T01:56:40.392Z,0
2017-04-06T01:57:40.446Z,0
2017-04-06T01:58:40.195Z,0
2017-04-06T01:59:40.250Z,0
2017-04-06T02:00:40.606Z,0
2017-04-06T02:01:40.657Z,0
2017-04-06T02:02:40.704Z,0
2017-04-06T02:03:40.759Z,0
2017-04-06T02:04:40.510Z,0
2017-04-06T02:05:40.863Z,0
2017-04-06T02:06:40.914Z,0
2017-04-06T02:07:40.963Z,0
2017-04-06T02:08:41.016Z,0
2017-04-06T02:09:41.068Z,0
2017-04-06T02:10:41.121Z,0
2017-04-06T02:11:41.171Z,0
2017-04-06T02:12:41.224Z,0
2017-04-06T02:13:41.271Z,0
2017-04-06T02:14:41.330Z,0
2017-04-06T02:15:41.076Z,0
2017-04-06T02:16:41.428Z,0
2017-04-06T02:17:41.486Z,0
2017-04-06T02:18:41.531Z,0
2017-04-06T02:19:41.586Z,0
2017-04-06T02:20:41.644Z,0
2017-04-06T02:21:41.686Z,0
2017-04-06T02:22:41.742Z,0
2017-04-06T02:23:41.790Z,0
2017-04-06T02:24:41.843Z,0
2017-04-06T02:25:41.590Z,0
2017-04-06T02:26:41.943Z,0
2017-04-06T02:27:42.001Z,0
2017-04-06T02:28:42.253Z,0
2017-04-06T02:29:42.102Z,0
2017-04-06T02:30:42.154Z,0
2017-04-06T02:31:42.207Z,0
2017-04-06T02:32:42.262Z,0
2017-04-06T02:33:42.307Z,0
2017-04-06T02:34:42.365Z,0
2017-04-06T02:35:42.414Z,0
2017-04-06T02:36:42.466Z,0
2017-04-06T02:37:42.512Z,0
2017-04-06T02:38:42.568Z,0
2017-04-06T02:39:42.621Z,0
2017-04-06T02:40:42.670Z,0
2017-04-06T02:41:42.723Z,0
2017-04-06T02:42:42.777Z,0
2017-04-06T02:43:42.826Z,0
2017-04-06T02:44:42.875Z,0
2017-04-06T02:45:42.626Z,0
2017-04-06T02:46:42.984Z,0
2017-04-06T02:47:43.031Z,0
2017-04-06T02:48:43.088Z,0
2017-04-06T02:49:43.134Z,0
2017-04-06T02:50:43.188Z,0
2017-04-06T02:51:43.244Z,0
2017-04-06T02:52:42.989Z,0
2017-04-06T02:53:43.347Z,0
2017-04-06T02:54:43.393Z,0
2017-04-06T02:55:43.446Z,0
2017-04-06T02:56:43.500Z,0
2017-04-06T02:57:43.751Z,0
2017-04-06T02:58:43.298Z,0
2017-04-06T02:59:43.651Z,0
2017-04-06T03:00:43.706Z,0
2017-04-06T03:01:43.757Z,0
2017-04-06T03:02:43.809Z,0
2017-04-06T03:03:43.863Z,0
2017-04-06T03:04:43.908Z,0
2017-04-06T03:05:43.660Z,0
2017-04-06T03:06:44.016Z,0
2017-04-06T03:07:44.062Z,0
2017-04-06T03:08:44.114Z,0
2017-04-06T03:09:44.171Z,0
2017-04-06T03:10:44.217Z,0
2017-04-06T03:11:44.270Z,0
2017-04-06T03:12:44.326Z,0
2017-04-06T03:13:44.373Z,0
2017-04-06T03:14:44.431Z,0
2017-04-06T03:15:44.478Z,0
2017-04-06T03:16:44.528Z,0
2017-04-06T03:17:44.583Z,0
2017-04-06T03:18:44.636Z,0
2017-04-06T03:19:44.688Z,0
2017-04-06T03:20:44.738Z,0
2017-04-06T03:21:44.792Z,0
2017-04-06T03:22:44.840Z,0
2017-04-06T03:23:44.908Z,0
2017-04-06T03:24:44.943Z,0
2017-04-06T03:25:44.997Z,0
2017-04-06T03:26:45.254Z,0
2017-04-06T03:27:45.098Z,0
2017-04-06T03:28:45.151Z,0
2017-04-06T03:29:45.201Z,0
2017-04-06T03:30:45.251Z,0
2017-04-06T03:31:45.316Z,0
2017-04-06T03:32:45.354Z,0
2017-04-06T03:33:45.410Z,0
2017-04-06T03:34:45.466Z,0
2017-04-06T03:35:45.512Z,0
2017-04-06T03:36:45.566Z,0
2017-04-06T03:37:45.313Z,0
2017-04-06T03:38:45.668Z,0
2017-04-06T03:39:45.728Z,0
2017-04-06T03:40:45.820Z,0
2017-04-06T03:41:45.823Z,0
2017-04-06T03:42:45.877Z,0
2017-04-06T03:43:45.931Z,0
2017-04-06T03:44:45.980Z,0
2017-04-06T03:45:46.039Z,0
2017-04-06T03:46:46.098Z,0
2017-04-06T03:47:46.134Z,0
2017-04-06T03:48:46.187Z,0
2017-04-06T03:49:46.235Z,0
2017-04-06T03:50:46.296Z,0
2017-04-06T03:51:46.346Z,0
2017-04-06T03:52:46.098Z,0
2017-04-06T03:53:46.179Z,0
2017-04-06T03:54:46.197Z,0
2017-04-06T03:55:46.247Z,0
2017-04-06T03:56:46.602Z,0
2017-04-06T03:57:46.655Z,0
2017-04-06T03:58:46.733Z,0
2017-04-06T03:59:46.756Z,0
2017-04-06T04:00:47.224Z,0
2017-04-06T04:01:46.860Z,0
2017-04-06T04:02:46.913Z,0
2017-04-06T04:03:47.176Z,0
2017-04-06T04:05:00.312Z,0
2017-04-06T04:06:01.698Z,0
2017-04-06T04:06:47.121Z,0
2017-04-06T04:07:47.172Z,0
2017-04-06T04:09:00.613Z,0
2017-04-06T04:09:47.281Z,0
2017-04-06T04:10:47.332Z,0
2017-04-06T04:11:47.415Z,0
2017-04-06T04:12:47.432Z,0
2017-04-06T04:13:47.485Z,0
2017-04-06T04:14:47.541Z,0
2017-04-06T04:15:47.591Z,0
2017-04-06T04:16:47.638Z,0
2017-04-06T04:17:47.392Z,0
2017-04-06T04:18:47.743Z,0
2017-04-06T04:19:47.793Z,0
2017-04-06T04:20:47.553Z,0
2017-04-06T04:21:47.902Z,0
2017-04-06T04:22:47.952Z,0
2017-04-06T04:23:47.999Z,0
2017-04-06T04:24:48.083Z,0
2017-04-06T04:25:48.110Z,0
2017-04-06T04:26:48.159Z,0
2017-04-06T04:27:48.211Z,4
2017-04-06T04:28:47.960Z,4
2017-04-06T04:29:48.314Z,4
2017-04-06T04:30:48.363Z,4
2017-04-06T04:31:48.118Z,4
2017-04-06T04:32:48.682Z,8
2017-04-06T04:33:48.729Z,4
2017-04-06T04:34:48.575Z,8
2017-04-06T04:35:48.624Z,8
2017-04-06T04:37:02.072Z,12
2017-04-06T04:37:48.938Z,16
2017-04-06T04:38:48.777Z,16
2017-04-06T04:39:48.833Z,24
2017-04-06T04:40:48.880Z,24
2017-04-06T04:41:48.935Z,28
2017-04-06T04:42:49.192Z,28
2017-04-06T04:43:49.034Z,32
2017-04-06T04:44:49.094Z,36
2017-04-06T04:45:49.144Z,36
2017-04-06T04:46:49.192Z,40
2017-04-06T04:47:49.244Z,44
2017-04-06T04:48:49.298Z,52
2017-04-06T04:49:49.351Z,56
2017-04-06T04:50:49.406Z,68
2017-04-06T04:51:49.455Z,76
2017-04-06T04:52:49.499Z,84
2017-04-06T04:53:49.556Z,84
2017-04-06T04:54:49.608Z,100
2017-04-06T04:55:49.661Z,104
2017-04-06T04:56:49.755Z,108
2017-04-06T04:57:49.761Z,124
2017-04-06T04:58:49.810Z,136
2017-04-06T04:59:49.875Z,140
2017-04-06T05:00:49.916Z,144
2017-04-06T05:01:49.974Z,148
2017-04-06T05:02:50.018Z,152
2017-04-06T05:03:50.092Z,160
2017-04-06T05:04:50.123Z,164
2017-04-06T05:05:50.179Z,172
2017-04-06T05:06:50.226Z,184
2017-04-06T05:07:50.430Z,196
2017-04-06T05:08:50.329Z,208
2017-04-06T05:09:50.382Z,212
2017-04-06T05:10:50.646Z,212
2017-04-06T05:11:50.488Z,228
2017-04-06T05:12:50.538Z,252
2017-04-06T05:13:50.589Z,264
2017-04-06T05:14:50.639Z,256
2017-04-06T05:15:50.696Z,260
2017-04-06T05:16:50.746Z,264
2017-04-06T05:17:50.797Z,280
2017-04-06T05:18:50.846Z,304
2017-04-06T05:19:50.898Z,316
2017-04-06T05:20:50.947Z,312
2017-04-06T05:21:51.002Z,312
2017-04-06T05:22:51.054Z,324
2017-04-06T05:23:51.104Z,328
2017-04-06T05:24:51.156Z,348
2017-04-06T05:25:51.207Z,372
2017-04-06T05:26:51.260Z,404
2017-04-06T05:27:51.313Z,448
2017-04-06T05:28:51.362Z,464
2017-04-06T05:29:51.414Z,476
2017-04-06T05:30:51.467Z,500
2017-04-06T05:31:51.522Z,544
2017-04-06T05:32:51.574Z,576
2017-04-06T05:33:51.323Z,688
2017-04-06T05:34:51.670Z,808
2017-04-06T05:35:51.421Z,844
2017-04-06T05:36:51.773Z,800
2017-04-06T05:37:51.827Z,716
2017-04-06T05:38:51.879Z,652
2017-04-06T05:39:51.929Z,616
2017-04-06T05:40:51.984Z,568
2017-04-06T05:41:52.032Z,548
2017-04-06T05:42:52.084Z,588
2017-04-06T05:43:52.138Z,688
2017-04-06T05:44:52.193Z,808
2017-04-06T05:45:51.935Z,896
2017-04-06T05:46:52.289Z,932
2017-04-06T05:47:52.345Z,920
2017-04-06T05:48:52.396Z,900
2017-04-06T05:49:52.654Z,872
2017-04-06T05:50:52.517Z,836
2017-04-06T05:51:52.254Z,820
2017-04-06T05:52:52.603Z,840
2017-04-06T05:53:52.656Z,920
2017-04-06T05:54:52.406Z,1028
2017-04-06T05:55:52.760Z,1124
2017-04-06T05:56:52.808Z,1152
2017-04-06T05:57:52.863Z,1172
2017-04-06T05:58:52.915Z,1204
2017-04-06T05:59:52.965Z,1232
2017-04-06T06:00:53.019Z,1288
2017-04-06T06:01:53.071Z,1364
2017-04-06T06:02:53.124Z,1272
2017-04-06T06:03:53.173Z,1136
2017-04-06T06:04:53.228Z,1160
2017-04-06T06:05:53.281Z,1260
2017-04-06T06:06:53.335Z,1292
2017-04-06T06:07:53.377Z,1256
2017-04-06T06:08:53.578Z,1260
2017-04-06T06:09:53.484Z,1324
2017-04-06T06:10:53.536Z,1384
2017-04-06T06:11:53.595Z,1496
2017-04-06T06:12:53.640Z,1700
2017-04-06T06:13:53.688Z,1924
2017-04-06T06:14:53.740Z,1776
2017-04-06T06:15:53.797Z,1724
2017-04-06T06:16:53.848Z,1808
2017-04-06T06:17:53.895Z,2084
2017-04-06T06:18:53.954Z,2180
2017-04-06T06:19:54.003Z,2260
2017-04-06T06:20:54.055Z,2356
2017-04-06T06:21:54.108Z,2264
2017-04-06T06:22:53.860Z,2220
2017-04-06T06:23:54.210Z,2400
2017-04-06T06:24:54.258Z,2572
2017-04-06T06:25:54.318Z,2608
2017-04-06T06:26:54.364Z,2540
2017-04-06T06:27:54.433Z,2356
2017-04-06T06:28:54.473Z,2116
2017-04-06T06:29:54.525Z,2008
2017-04-06T06:30:54.279Z,2152
2017-04-06T06:31:54.628Z,2164
2017-04-06T06:32:54.677Z,2140
2017-04-06T06:33:54.733Z,2036
2017-04-06T06:34:54.794Z,2028
2017-04-06T06:35:54.832Z,1992
2017-04-06T06:36:54.884Z,1876
2017-04-06T06:37:54.940Z,1772
2017-04-06T06:38:54.988Z,1696
2017-04-06T06:39:55.046Z,1648
2017-04-06T06:40:55.094Z,1684
2017-04-06T06:41:54.849Z,1764
2017-04-06T06:42:55.203Z,1880
2017-04-06T06:43:54.949Z,2100
2017-04-06T06:44:55.302Z,2292
2017-04-06T06:45:55.052Z,2324
2017-04-06T06:46:55.408Z,2268
2017-04-06T06:47:55.157Z,2044
2017-04-06T06:48:55.206Z,1944
2017-04-06T06:49:55.259Z,2052
2017-04-06T06:50:55.628Z,2300
2017-04-06T06:51:55.671Z,2596
2017-04-06T06:52:55.719Z,2732
2017-04-06T06:53:55.770Z,2696
2017-04-06T06:54:55.825Z,2660
2017-04-06T06:55:55.876Z,2656
2017-04-06T06:56:55.923Z,2532
2017-04-06T06:57:55.674Z,2500
2017-04-06T06:58:55.729Z,2548
2017-04-06T06:59:56.084Z,2676
2017-04-06T07:00:56.141Z,2800
2017-04-06T07:01:56.188Z,2920
2017-04-06T07:02:56.242Z,3116
2017-04-06T07:03:56.291Z,3184
2017-04-06T07:04:56.347Z,3136
2017-04-06T07:05:56.396Z,3340
2017-04-06T07:06:56.455Z,3652
2017-04-06T07:07:56.500Z,3480
2017-04-06T07:08:56.552Z,3268
2017-04-06T07:09:56.608Z,3304
2017-04-06T07:10:56.660Z,3252
2017-04-06T07:11:56.713Z,3232
2017-04-06T07:12:56.764Z,3396
2017-04-06T07:13:56.814Z,3764
2017-04-06T07:14:56.865Z,3580
2017-04-06T07:15:56.919Z,3492
2017-04-06T07:16:56.978Z,3652
2017-04-06T07:17:56.724Z,3828
2017-04-06T07:18:57.082Z,3788
2017-04-06T07:19:57.127Z,3524
2017-04-06T07:20:57.179Z,3184
2017-04-06T07:21:57.237Z,3108
2017-04-06T07:22:57.293Z,3180
2017-04-06T07:23:57.339Z,3168
2017-04-06T07:24:57.392Z,2976
2017-04-06T07:25:57.445Z,2872
2017-04-06T07:26:57.527Z,2956
2017-04-06T07:27:57.548Z,3204
2017-04-06T07:28:57.299Z,3388
2017-04-06T07:29:57.653Z,3432
2017-04-06T07:30:57.706Z,3436
2017-04-06T07:31:57.758Z,3368
2017-04-06T07:32:57.810Z,3296
2017-04-06T07:33:57.861Z,3276
2017-04-06T07:34:57.619Z,3176
2017-04-06T07:35:57.966Z,3044
2017-04-06T07:36:58.023Z,2988
2017-04-06T07:37:58.070Z,3072
2017-04-06T07:38:57.822Z,3208
2017-04-06T07:39:58.177Z,3232
2017-04-06T07:40:58.231Z,3256
2017-04-06T07:41:58.281Z,3328
2017-04-06T07:42:58.337Z,3196
2017-04-06T07:43:58.083Z,3156
2017-04-06T07:44:58.439Z,3120
2017-04-06T07:45:58.491Z,3112
2017-04-06T07:46:58.542Z,3240
2017-04-06T07:47:58.592Z,3408
2017-04-06T07:48:58.656Z,3448
2017-04-06T07:49:58.727Z,3484
2017-04-06T07:50:58.758Z,3536
2017-04-06T07:51:58.809Z,3712
2017-04-06T07:52:58.862Z,3872
2017-04-06T07:53:58.912Z,4112
2017-04-06T07:54:58.965Z,4736
2017-04-06T07:55:59.015Z,5068
2017-04-06T07:56:59.074Z,5116
2017-04-06T07:57:59.127Z,5196
2017-04-06T07:58:59.182Z,4880
2017-04-06T07:59:59.229Z,4996
2017-04-06T08:00:59.283Z,5136
2017-04-06T08:01:59.334Z,5192
2017-04-06T08:02:59.386Z,5380
2017-04-06T08:03:59.450Z,5372
2017-04-06T08:04:59.494Z,5640
2017-04-06T08:05:59.549Z,5628
2017-04-06T08:06:59.598Z,5476
2017-04-06T08:07:59.651Z,5088
2017-04-06T08:08:59.704Z,4928
2017-04-06T08:09:59.759Z,4968
2017-04-06T08:10:59.806Z,5136
2017-04-06T08:11:59.867Z,5300
2017-04-06T08:12:59.915Z,5416
2017-04-06T08:13:59.969Z,5836
2017-04-06T08:15:00.020Z,5728
2017-04-06T08:16:00.074Z,5636
2017-04-06T08:17:00.128Z,5808
2017-04-06T08:17:59.879Z,5736
2017-04-06T08:18:59.934Z,6020
2017-04-06T08:19:59.984Z,6516
2017-04-06T08:21:00.042Z,6764
2017-04-06T08:22:00.394Z,6888
2017-04-06T08:23:00.447Z,6548
2017-04-06T08:24:00.500Z,6188
2017-04-06T08:25:00.550Z,6564
2017-04-06T08:26:00.609Z,6468
2017-04-06T08:27:00.661Z,6256
2017-04-06T08:28:00.709Z,6384
2017-04-06T08:29:00.761Z,6408
2017-04-06T08:30:00.815Z,6044
2017-04-06T08:31:00.872Z,5948
2017-04-06T08:32:00.620Z,5920
2017-04-06T08:33:00.976Z,6132
2017-04-06T08:34:01.032Z,6212
2017-04-06T08:35:01.082Z,6368
2017-04-06T08:36:01.136Z,6744
2017-04-06T08:37:01.192Z,6788
2017-04-06T08:38:01.245Z,6788
2017-04-06T08:39:01.297Z,6340
2017-04-06T08:40:01.348Z,6300
2017-04-06T08:41:01.405Z,6424
2017-04-06T08:42:01.459Z,6188
2017-04-06T08:43:01.512Z,6300
2017-04-06T08:44:01.564Z,6344
2017-04-06T08:45:01.612Z,6460
2017-04-06T08:46:01.665Z,6612
2017-04-06T08:47:01.749Z,6756
2017-04-06T08:48:01.777Z,6376
2017-04-06T08:49:01.828Z,6004
2017-04-06T08:50:01.877Z,6576
2017-04-06T08:51:01.934Z,8316
2017-04-06T08:52:01.688Z,8552
2017-04-06T08:53:02.044Z,7880
2017-04-06T08:54:02.096Z,7828
2017-04-06T08:55:02.149Z,8512
2017-04-06T08:56:02.204Z,9496
2017-04-06T08:57:02.258Z,9756
2017-04-06T08:58:02.005Z,8816
2017-04-06T08:59:02.394Z,8136
2017-04-06T09:00:02.415Z,7808
2017-04-06T09:01:02.466Z,7804
2017-04-06T09:02:02.530Z,7928
2017-04-06T09:03:02.571Z,8320
2017-04-06T09:04:02.631Z,9176
2017-04-06T09:05:02.683Z,10412
2017-04-06T09:06:02.435Z,10128
2017-04-06T09:07:02.791Z,9928
2017-04-06T09:08:02.543Z,10440
2017-04-06T09:09:02.895Z,8876
2017-04-06T09:10:02.952Z,8580
2017-04-06T09:11:03.008Z,8340
2017-04-06T09:12:03.059Z,10888
2017-04-06T09:13:03.112Z,10908
2017-04-06T09:14:03.167Z,10516
2017-04-06T09:15:02.918Z,10940
2017-04-06T09:16:03.277Z,11748
2017-04-06T09:17:03.328Z,11264
2017-04-06T09:18:03.389Z,11192
2017-04-06T09:19:03.433Z,12144
2017-04-06T09:20:03.491Z,12804
2017-04-06T09:21:03.545Z,12460
2017-04-06T09:22:03.596Z,11412
2017-04-06T09:23:03.651Z,10376
2017-04-06T09:24:03.715Z,9820
2017-04-06T09:25:03.758Z,9668
2017-04-06T09:26:03.813Z,9424
2017-04-06T09:27:03.868Z,8692
2017-04-06T09:28:03.924Z,11916
2017-04-06T09:29:03.979Z,13892
2017-04-06T09:30:04.036Z,13540
2017-04-06T09:31:03.786Z,12152
2017-04-06T09:32:04.150Z,11096
2017-04-06T09:33:04.194Z,10328
2017-04-06T09:34:04.251Z,10452
2017-04-06T09:35:04.304Z,10676
2017-04-06T09:36:04.362Z,10112
2017-04-06T09:37:04.414Z,9108
2017-04-06T09:38:04.164Z,8828
2017-04-06T09:39:04.528Z,8436
2017-04-06T09:40:04.576Z,7376
2017-04-06T09:41:04.632Z,6828
2017-04-06T09:42:04.382Z,7192
2017-04-06T09:43:04.738Z,8660
2017-04-06T09:44:04.492Z,8156
2017-04-06T09:45:04.853Z,9192
2017-04-06T09:46:04.907Z,8568
2017-04-06T09:47:04.959Z,7340
2017-04-06T09:48:05.006Z,6580
2017-04-06T09:49:05.066Z,6848
2017-04-06T09:50:05.121Z,6572
2017-04-06T09:51:05.189Z,7072
2017-04-06T09:52:05.229Z,7848
2017-04-06T09:53:04.982Z,7844
2017-04-06T09:54:05.335Z,7980
2017-04-06T09:55:05.397Z,8376
2017-04-06T09:56:05.448Z,8848
2017-04-06T09:57:05.513Z,10252
2017-04-06T09:58:05.554Z,12364
2017-04-06T09:59:05.610Z,10944
2017-04-06T10:00:05.667Z,10964
2017-04-06T10:01:05.723Z,14152
2017-04-06T10:02:05.778Z,13932
2017-04-06T10:03:05.828Z,13036
2017-04-06T10:04:05.886Z,14140
2017-04-06T10:05:05.939Z,12212
2017-04-06T10:06:05.992Z,11520
2017-04-06T10:07:05.745Z,15692
2017-04-06T10:08:06.100Z,15760
2017-04-06T10:09:06.158Z,15200
2017-04-06T10:10:05.912Z,13556
2017-04-06T10:11:05.960Z,17108
2017-04-06T10:12:06.317Z,14440
2017-04-06T10:13:06.369Z,14848
2017-04-06T10:14:06.127Z,12872
2017-04-06T10:15:06.489Z,16148
2017-04-06T10:16:06.542Z,14896
2017-04-06T10:17:06.587Z,14832
2017-04-06T10:18:06.670Z,14908
2017-04-06T10:19:06.697Z,13784
2017-04-06T10:20:06.757Z,13696
2017-04-06T10:21:06.808Z,13840
2017-04-06T10:22:06.861Z,11872
2017-04-06T10:23:06.914Z,13212
2017-04-06T10:24:06.970Z,13124
2017-04-06T10:25:07.028Z,11464
2017-04-06T10:26:07.077Z,10960
2017-04-06T10:27:07.126Z,10648
2017-04-06T10:28:07.184Z,10584
2017-04-06T10:29:07.242Z,11028
2017-04-06T10:30:07.297Z,10296
2017-04-06T10:31:07.349Z,10448
2017-04-06T10:32:07.098Z,11076
2017-04-06T10:33:07.158Z,12784
2017-04-06T10:34:07.509Z,13216
2017-04-06T10:35:07.569Z,12720
2017-04-06T10:36:07.619Z,12532
2017-04-06T10:37:07.670Z,13424
2017-04-06T10:38:07.730Z,13616
2017-04-06T10:39:07.484Z,12056
2017-04-06T10:40:07.539Z,11100
2017-04-06T10:41:07.895Z,10912
2017-04-06T10:42:07.949Z,10224
2017-04-06T10:43:08.001Z,9664
2017-04-06T10:44:07.750Z,8552
2017-04-06T10:45:07.808Z,9528
2017-04-06T10:46:08.164Z,10576
2017-04-06T10:47:08.221Z,10052
2017-04-06T10:48:08.274Z,10192
2017-04-06T10:49:08.331Z,10320
2017-04-06T10:50:08.382Z,10052
2017-04-06T10:51:08.436Z,11548
2017-04-06T10:52:08.488Z,11180
2017-04-06T10:53:08.540Z,11760
2017-04-06T10:54:08.597Z,11112
2017-04-06T10:55:08.650Z,12452
2017-04-06T10:56:08.709Z,12676
2017-04-06T10:57:08.761Z,12656
2017-04-06T10:58:08.817Z,12952
2017-04-06T10:59:08.869Z,13036
2017-04-06T11:00:08.923Z,13864
2017-04-06T11:01:08.987Z,14508
2017-04-06T11:02:09.031Z,14680
2017-04-06T11:03:09.090Z,15508
2017-04-06T11:04:08.838Z,15028
2017-04-06T11:05:09.203Z,12884
2017-04-06T11:06:08.952Z,12884
2017-04-06T11:07:09.309Z,12940
2017-04-06T11:08:09.370Z,12260
2017-04-06T11:09:09.418Z,11204
2017-04-06T11:10:09.473Z,12180
2017-04-06T11:11:09.535Z,12816
2017-04-06T11:12:09.282Z,13648
2017-04-06T11:13:09.640Z,13176
2017-04-06T11:14:09.690Z,13452
2017-04-06T11:15:09.746Z,14000
2017-04-06T11:16:09.500Z,13568
2017-04-06T11:17:09.856Z,14036
2017-04-06T11:18:09.913Z,13484
2017-04-06T11:19:09.967Z,13432
2017-04-06T11:20:10.021Z,13676
2017-04-06T11:21:10.082Z,14496
2017-04-06T11:22:10.135Z,13060
2017-04-06T11:23:10.187Z,11936
2017-04-06T11:24:09.942Z,11196
2017-04-06T11:25:10.302Z,10440
2017-04-06T11:26:10.358Z,10168
2017-04-06T11:27:10.413Z,10372
2017-04-06T11:28:10.467Z,12496
2017-04-06T11:29:10.522Z,12960
2017-04-06T11:30:10.574Z,11652
2017-04-06T11:31:10.632Z,11720
2017-04-06T11:32:10.686Z,10996
2017-04-06T11:33:10.742Z,10484
2017-04-06T11:34:10.797Z,12520
2017-04-06T11:35:10.546Z,13468
2017-04-06T11:36:10.917Z,12120
2017-04-06T11:37:10.959Z,12420
2017-04-06T11:38:11.020Z,11332
2017-04-06T11:39:11.070Z,11016
2017-04-06T11:40:11.132Z,11644
2017-04-06T11:41:11.184Z,12100
2017-04-06T11:42:11.246Z,12332
2017-04-06T11:43:11.291Z,12084
2017-04-06T11:44:11.043Z,10808
2017-04-06T11:45:11.402Z,11928
2017-04-06T11:46:11.459Z,11300
2017-04-06T11:47:11.513Z,13316
2017-04-06T11:48:11.571Z,13284
2017-04-06T11:49:11.619Z,13880
2017-04-06T11:50:11.375Z,12472
2017-04-06T11:51:11.737Z,13264
2017-04-06T11:52:11.787Z,12204
2017-04-06T11:53:11.838Z,14600
2017-04-06T11:54:11.895Z,13324
2017-04-06T11:55:11.950Z,13516
2017-04-06T11:56:12.005Z,13304
2017-04-06T11:57:12.060Z,13244
2017-04-06T11:58:12.116Z,12272
2017-04-06T11:59:12.167Z,11796
2017-04-06T12:00:12.223Z,12068
2017-04-06T12:01:12.277Z,12104
2017-04-06T12:02:12.335Z,12660
2017-04-06T12:03:12.385Z,12776
2017-04-06T12:04:12.441Z,11552
2017-04-06T12:05:12.499Z,12376
2017-04-06T12:06:12.557Z,11468
2017-04-06T12:07:12.605Z,11740
2017-04-06T12:08:12.671Z,11348
2017-04-06T12:09:12.719Z,10764
2017-04-06T12:10:12.474Z,13152
2017-04-06T12:11:12.825Z,12708
2017-04-06T12:12:12.882Z,11140
2017-04-06T12:13:12.933Z,10400
2017-04-06T12:14:12.992Z,10260
2017-04-06T12:15:13.047Z,10500
2017-04-06T12:16:13.102Z,10008
2017-04-06T12:17:13.157Z,10436
2017-04-06T12:18:12.905Z,10812
2017-04-06T12:19:13.265Z,12784
2017-04-06T12:20:13.320Z,13528
2017-04-06T12:21:13.375Z,13196
2017-04-06T12:22:13.430Z,12136
2017-04-06T12:23:13.481Z,11924
2017-04-06T12:24:13.537Z,12164
2017-04-06T12:25:13.593Z,12292
2017-04-06T12:26:13.649Z,11708
2017-04-06T12:27:13.403Z,10644
2017-04-06T12:28:13.760Z,9604
2017-04-06T12:29:13.810Z,9392
2017-04-06T12:30:13.867Z,9672
2017-04-06T12:31:13.921Z,10084
2017-04-06T12:32:13.981Z,10824
2017-04-06T12:33:13.730Z,10556
2017-04-06T12:34:14.084Z,10140
2017-04-06T12:35:14.138Z,10132
2017-04-06T12:36:14.199Z,9968
2017-04-06T12:37:14.249Z,9768
2017-04-06T12:38:14.306Z,9616
2017-04-06T12:39:14.362Z,9268
2017-04-06T12:40:14.111Z,9352
2017-04-06T12:41:14.467Z,9044
2017-04-06T12:42:14.526Z,8732
2017-04-06T12:43:14.573Z,8196
2017-04-06T12:44:14.637Z,8140
2017-04-06T12:45:14.690Z,7964
2017-04-06T12:46:14.744Z,8124
2017-04-06T12:47:14.802Z,8296
2017-04-06T12:48:14.853Z,8544
2017-04-06T12:49:14.908Z,8556
2017-04-06T12:50:14.962Z,8936
2017-04-06T12:51:15.016Z,8404
2017-04-06T12:52:15.069Z,8628
2017-04-06T12:53:15.120Z,8644
2017-04-06T12:54:15.182Z,9364
2017-04-06T12:55:15.236Z,9556
2017-04-06T12:56:15.291Z,9308
2017-04-06T12:57:15.338Z,8504
2017-04-06T12:58:15.397Z,8816
2017-04-06T12:59:15.451Z,9440
2017-04-06T13:00:15.200Z,10068
2017-04-06T13:01:15.560Z,10500
2017-04-06T13:02:15.310Z,10992
2017-04-06T13:03:15.669Z,10860
2017-04-06T13:04:15.719Z,11304
2017-04-06T13:05:15.774Z,10920
2017-04-06T13:06:15.826Z,9804
2017-04-06T13:07:15.581Z,9228
2017-04-06T13:08:15.937Z,9872
2017-04-06T13:09:15.987Z,9832
2017-04-06T13:10:16.050Z,9476
2017-04-06T13:11:16.099Z,9520
2017-04-06T13:12:16.158Z,9588
2017-04-06T13:13:16.209Z,8268
2017-04-06T13:14:16.267Z,8032
2017-04-06T13:15:16.321Z,8188
2017-04-06T13:16:16.069Z,8296
2017-04-06T13:17:16.424Z,8692
2017-04-06T13:18:16.482Z,10116
2017-04-06T13:19:16.535Z,10184
2017-04-06T13:20:16.588Z,10592
2017-04-06T13:21:16.643Z,10808
2017-04-06T13:22:16.702Z,10368
2017-04-06T13:23:16.451Z,10424
2017-04-06T13:24:16.814Z,10900
2017-04-06T13:25:16.865Z,10660
2017-04-06T13:26:16.913Z,10644
2017-04-06T13:27:16.973Z,10300
2017-04-06T13:28:17.030Z,10724
2017-04-06T13:29:17.082Z,10436
2017-04-06T13:30:17.133Z,9684
2017-04-06T13:31:17.185Z,9988
2017-04-06T13:32:17.247Z,10776
2017-04-06T13:33:17.296Z,10604
2017-04-06T13:34:17.349Z,9628
2017-04-06T13:35:17.407Z,10380
2017-04-06T13:36:17.458Z,10568
2017-04-06T13:37:17.513Z,10244
2017-04-06T13:38:17.570Z,10064
2017-04-06T13:39:17.626Z,9868
2017-04-06T13:40:17.674Z,9384
2017-04-06T13:41:17.740Z,7796
2017-04-06T13:42:17.786Z,8464
2017-04-06T13:43:17.840Z,7004